Time;durP1;ratioP1;P1;durP2;ratioP2;P2;SDS_P1;SDS_P2;PMS_P1;PMS_P2;Temp;Humidity;BMP_temperature;BMP_pressure;BME280_temperature;BME280_humidity;BME280_pressure;Samples;Min_cycle;Max_cycle;Signal;HPM_P1;HPM_P2
2022/01/19 00:01:44;;;;;;;13.50;7.47;;;2.70;99.90;;;;;;8469563;27;20428;-68
2022/01/19 00:05:45;;;;;;;12.53;7.30;;;2.70;99.90;;;;;;8484810;27;20281;-67
2022/01/19 00:09:45;;;;;;;14.50;6.97;;;2.70;99.90;;;;;;8467425;27;20259;-67
2022/01/19 00:13:46;;;;;;;14.10;6.80;;;2.70;99.90;;;;;;8480647;27;20188;-68
2022/01/19 00:17:48;;;;;;;10.83;6.80;;;2.70;99.90;;;;;;8453939;27;20291;-67
2022/01/19 00:21:49;;;;;;;13.57;7.00;;;2.70;99.90;;;;;;8463847;27;20183;-68
2022/01/19 00:25:52;;;;;;;14.23;7.30;;;2.70;99.90;;;;;;8474701;27;20203;-72
2022/01/19 00:29:53;;;;;;;12.93;7.83;;;2.70;99.90;;;;;;8468105;28;20176;-67
2022/01/19 00:33:54;;;;;;;16.63;7.73;;;2.70;99.90;;;;;;8483447;27;20178;-68
2022/01/19 00:37:55;;;;;;;13.83;7.27;;;2.70;99.90;;;;;;8476759;27;20206;-68
2022/01/19 00:41:56;;;;;;;11.10;6.27;;;2.80;99.90;;;;;;8471322;27;20200;-68
2022/01/19 00:45:57;;;;;;;11.43;6.40;;;2.80;99.90;;;;;;8463247;27;20506;-67
2022/01/19 00:49:58;;;;;;;12.57;6.53;;;2.80;99.90;;;;;;8463837;27;20182;-67
2022/01/19 00:53:59;;;;;;;9.83;6.20;;;2.80;99.90;;;;;;8480133;27;20226;-67
2022/01/19 00:57:59;;;;;;;11.70;5.80;;;2.80;99.90;;;;;;8474012;28;20199;-67
2022/01/19 01:02:01;;;;;;;12.07;5.67;;;2.80;99.90;;;;;;8472476;27;20191;-67
2022/01/19 01:06:02;;;;;;;10.73;5.67;;;2.80;99.90;;;;;;8466635;27;20211;-67
2022/01/19 01:10:03;;;;;;;9.53;5.80;;;2.80;99.90;;;;;;8485128;28;20263;-68
2022/01/19 01:22:07;;;;;;;11.53;5.47;;;2.90;99.90;;;;;;8453455;28;20274;-67
2022/01/19 01:26:07;;;;;;;10.13;6.30;;;2.90;99.90;;;;;;8481027;27;20518;-67
2022/01/19 01:30:09;;;;;;;8.57;5.57;;;2.90;99.90;;;;;;8487304;27;20183;-68
2022/01/19 01:34:10;;;;;;;8.23;5.87;;;2.90;99.90;;;;;;8475207;27;20229;-68
2022/01/19 01:38:11;;;;;;;18.57;7.93;;;2.90;99.90;;;;;;8467240;27;20272;-68
2022/01/19 01:42:15;;;;;;;20.33;8.20;;;2.90;99.90;;;;;;8489479;27;20616;-67
2022/01/19 01:46:31;;;;;;;12.63;5.30;;;2.90;99.90;;;;;;8486887;27;20207;-70
2022/01/19 01:54:53;;;;;;;11.97;5.03;;;3.00;99.90;;;;;;8482725;27;20198;-68
2022/01/19 01:58:54;;;;;;;9.43;5.37;;;3.00;99.90;;;;;;8477142;27;20217;-67
2022/01/19 02:02:55;;;;;;;15.37;6.67;;;3.00;99.90;;;;;;8471822;27;20214;-67
2022/01/19 02:11:08;;;;;;;8.07;5.43;;;3.00;99.90;;;;;;8475833;27;20271;-65
2022/01/19 02:23:51;;;;;;;10.73;5.50;;;2.90;99.90;;;;;;8470575;27;20221;-66
2022/01/19 02:40:47;;;;;;;8.00;4.90;;;3.00;99.90;;;;;;8469147;27;20614;-67
2022/01/19 02:53:08;;;;;;;6.67;4.37;;;2.90;99.90;;;;;;8484121;27;20196;-67
2022/01/19 02:57:12;;;;;;;6.57;3.97;;;2.90;99.90;;;;;;8485327;27;20280;-67
2022/01/19 03:09:51;;;;;;;9.23;4.60;;;2.90;99.90;;;;;;8489202;27;20236;-67
2022/01/19 03:13:52;;;;;;;7.27;4.50;;;2.90;99.90;;;;;;8484895;27;20187;-67
2022/01/19 03:17:57;;;;;;;12.77;5.30;;;2.90;99.90;;;;;;8476052;27;20227;-67
2022/01/19 03:21:59;;;;;;;7.80;5.10;;;2.90;99.90;;;;;;8483005;27;20283;-67
2022/01/19 03:26:05;;;;;;;9.60;5.80;;;3.00;99.90;;;;;;8452631;28;20211;-68
2022/01/19 03:30:07;;;;;;;9.83;5.50;;;3.00;99.90;;;;;;8478390;27;20183;-67
2022/01/19 03:34:08;;;;;;;12.10;5.97;;;3.10;99.90;;;;;;8486924;27;20275;-67
2022/01/19 03:38:10;;;;;;;10.60;6.00;;;3.10;99.90;;;;;;8486043;27;20189;-68
2022/01/19 03:42:10;;;;;;;9.73;6.10;;;3.10;99.90;;;;;;8469603;27;20193;-68
2022/01/19 03:46:15;;;;;;;8.23;5.00;;;3.10;99.90;;;;;;8483180;27;20207;-67
2022/01/19 03:50:16;;;;;;;8.93;5.20;;;3.20;99.90;;;;;;8460140;27;20176;-67
2022/01/19 03:54:18;;;;;;;11.43;5.27;;;3.20;99.90;;;;;;8453815;28;20179;-67
2022/01/19 03:58:19;;;;;;;6.90;5.27;;;3.20;99.90;;;;;;8481353;27;20218;-68
2022/01/19 04:02:20;;;;;;;7.57;4.80;;;3.20;99.90;;;;;;8471291;27;20187;-68
2022/01/19 04:06:25;;;;;;;11.53;5.50;;;3.20;99.90;;;;;;8454719;28;20222;-68
2022/01/19 04:10:26;;;;;;;11.30;5.60;;;3.20;99.90;;;;;;8469250;27;20232;-67
2022/01/19 04:14:27;;;;;;;9.00;5.70;;;3.10;99.90;;;;;;8486543;27;20246;-67
2022/01/19 04:18:28;;;;;;;9.23;5.53;;;3.10;99.90;;;;;;8477629;27;20202;-66
2022/01/19 04:22:29;;;;;;;10.50;5.70;;;3.10;99.90;;;;;;8474743;28;20184;-67
2022/01/19 04:26:31;;;;;;;9.33;6.73;;;3.00;99.90;;;;;;8453335;28;20293;-67
2022/01/19 04:30:32;;;;;;;14.17;8.97;;;3.00;99.90;;;;;;8480883;27;20182;-67
2022/01/19 04:34:33;;;;;;;15.43;7.43;;;3.00;99.90;;;;;;8461857;28;20235;-68
2022/01/19 04:39:23;;;;;;;10.00;5.60;;;3.00;99.90;;;;;;8473889;27;20221;-66
2022/01/19 05:09:04;;;;;;;9.63;5.80;;;2.40;99.90;;;;;;8484631;27;20592;-67
2022/01/19 05:17:46;;;;;;;13.33;5.80;;;2.40;99.90;;;;;;8410877;28;20217;-67
2022/01/19 05:21:47;;;;;;;7.27;4.97;;;2.40;99.90;;;;;;8454716;27;20194;-67
2022/01/19 05:25:48;;;;;;;7.80;4.80;;;2.50;99.90;;;;;;8492568;27;20209;-67
2022/01/19 05:29:49;;;;;;;10.20;5.43;;;2.50;99.90;;;;;;8484071;27;20221;-67
2022/01/19 05:33:50;;;;;;;8.00;5.37;;;2.50;99.90;;;;;;8482247;27;20186;-67
2022/01/19 05:37:51;;;;;;;7.13;4.37;;;2.50;99.90;;;;;;8489894;27;20212;-66
2022/01/19 05:41:52;;;;;;;10.07;6.00;;;2.40;99.90;;;;;;8476035;27;20193;-66
2022/01/19 05:45:53;;;;;;;11.80;8.13;;;2.30;99.90;;;;;;8465988;27;20211;-67
2022/01/19 05:49:54;;;;;;;19.90;8.53;;;2.20;99.90;;;;;;8476162;27;20281;-67
2022/01/19 05:53:55;;;;;;;7.53;5.23;;;2.10;99.90;;;;;;8456986;28;20183;-68
2022/01/19 05:57:56;;;;;;;7.03;4.93;;;2.00;99.90;;;;;;8482471;27;20195;-66
2022/01/19 06:01:57;;;;;;;7.90;5.20;;;1.90;99.90;;;;;;8481778;27;20220;-67
2022/01/19 06:05:58;;;;;;;6.17;4.70;;;1.90;99.90;;;;;;8491434;27;20207;-66
2022/01/19 06:10:06;;;;;;;10.07;5.50;;;1.80;99.90;;;;;;8486138;27;20183;-67
2022/01/19 06:14:07;;;;;;;10.07;5.00;;;1.60;99.90;;;;;;8473349;27;20179;-67
2022/01/19 06:18:08;;;;;;;10.07;6.20;;;1.60;99.90;;;;;;8480905;27;20287;-68
2022/01/19 06:22:09;;;;;;;9.87;6.10;;;1.40;99.90;;;;;;8490129;27;20297;-67
2022/01/19 06:26:10;;;;;;;11.47;5.67;;;1.40;99.90;;;;;;8488420;27;20215;-67
2022/01/19 06:30:12;;;;;;;9.57;5.83;;;1.30;99.90;;;;;;8473094;27;20531;-67
2022/01/19 06:34:13;;;;;;;12.87;6.90;;;1.20;99.90;;;;;;8462055;27;20180;-66
2022/01/19 06:38:14;;;;;;;10.80;5.77;;;1.10;99.90;;;;;;8489069;27;20229;-67
2022/01/19 06:42:15;;;;;;;8.00;5.33;;;1.10;99.90;;;;;;8477805;27;20233;-67
2022/01/19 06:46:16;;;;;;;8.83;5.97;;;1.00;99.90;;;;;;8470753;27;20207;-67
2022/01/19 06:50:19;;;;;;;9.77;5.37;;;1.00;99.90;;;;;;8477606;27;20182;-67
2022/01/19 06:54:20;;;;;;;8.90;5.47;;;0.90;99.90;;;;;;8471465;27;20215;-67
2022/01/19 06:58:20;;;;;;;10.60;7.00;;;0.90;99.90;;;;;;8478348;27;20631;-67
2022/01/19 07:02:21;;;;;;;10.10;6.40;;;0.90;99.90;;;;;;8488483;27;20271;-66
2022/01/19 07:06:22;;;;;;;14.00;7.63;;;0.90;99.90;;;;;;8470658;27;20214;-68
2022/01/19 07:10:23;;;;;;;13.90;8.07;;;0.90;99.90;;;;;;8477795;27;20191;-68
2022/01/19 07:14:24;;;;;;;19.03;8.77;;;0.90;99.90;;;;;;8473785;27;20259;-68
2022/01/19 07:18:25;;;;;;;13.10;6.93;;;0.90;99.90;;;;;;8473042;27;20244;-68
2022/01/19 07:22:26;;;;;;;11.93;6.60;;;1.00;99.90;;;;;;8480496;27;20190;-68
2022/01/19 07:26:27;;;;;;;13.50;7.57;;;1.00;99.90;;;;;;8466612;27;20211;-68
2022/01/19 07:30:28;;;;;;;11.97;6.97;;;1.00;99.90;;;;;;8481392;27;20187;-69
2022/01/19 07:34:29;;;;;;;13.73;7.40;;;1.00;99.90;;;;;;8483571;27;20278;-68
2022/01/19 07:38:30;;;;;;;15.20;8.90;;;1.10;99.90;;;;;;8478266;27;20193;-68
2022/01/19 07:42:30;;;;;;;17.20;10.33;;;1.10;99.90;;;;;;8470098;27;20558;-68
2022/01/19 07:46:32;;;;;;;17.37;9.60;;;1.00;99.90;;;;;;8474416;27;20223;-68
2022/01/19 07:50:33;;;;;;;18.13;10.37;;;1.10;99.90;;;;;;8470686;27;20187;-68
2022/01/19 07:54:34;;;;;;;17.00;9.70;;;1.10;99.90;;;;;;8464132;27;20198;-69
2022/01/19 07:58:34;;;;;;;16.47;8.87;;;1.10;99.90;;;;;;8475902;27;20202;-69
2022/01/19 08:02:35;;;;;;;15.43;9.57;;;1.20;99.90;;;;;;8475719;27;20233;-68
2022/01/19 08:06:36;;;;;;;15.40;10.20;;;1.30;99.90;;;;;;8471709;27;20274;-68
2022/01/19 08:10:37;;;;;;;14.27;9.27;;;1.40;99.90;;;;;;8478809;27;20204;-69
2022/01/19 08:14:38;;;;;;;19.87;10.07;;;1.50;99.90;;;;;;8470125;27;20179;-69
2022/01/19 08:18:39;;;;;;;16.40;9.70;;;1.60;99.90;;;;;;8466447;27;20215;-69
2022/01/19 08:22:40;;;;;;;18.67;9.57;;;1.70;99.90;;;;;;8477316;28;20584;-70
2022/01/19 08:26:41;;;;;;;15.13;9.47;;;1.80;99.90;;;;;;8458828;28;20214;-69
2022/01/19 08:30:42;;;;;;;17.93;10.47;;;2.00;99.90;;;;;;8478884;27;20183;-69
2022/01/19 08:34:43;;;;;;;13.87;9.30;;;2.10;99.90;;;;;;8474082;27;20188;-69
2022/01/19 08:38:44;;;;;;;14.60;8.07;;;2.10;99.90;;;;;;8486836;27;20183;-69
2022/01/19 08:42:44;;;;;;;14.60;8.10;;;2.20;99.90;;;;;;8469671;27;20177;-69
2022/01/19 08:46:45;;;;;;;11.83;7.53;;;2.30;99.90;;;;;;8478438;27;20207;-69
2022/01/19 08:50:46;;;;;;;11.53;7.27;;;2.40;99.90;;;;;;8460011;28;20257;-69
2022/01/19 08:54:47;;;;;;;9.53;6.47;;;2.50;99.90;;;;;;8460764;27;20297;-68
2022/01/19 08:58:48;;;;;;;10.73;7.27;;;2.60;99.90;;;;;;8488781;27;20199;-69
2022/01/19 09:02:49;;;;;;;13.60;8.60;;;2.70;99.90;;;;;;8479094;27;20214;-68
2022/01/19 09:06:55;;;;;;;9.07;7.00;;;2.90;99.90;;;;;;8462304;27;20282;-69
2022/01/19 09:10:58;;;;;;;11.33;6.80;;;3.10;99.90;;;;;;8469042;27;20167;-68
2022/01/19 09:14:59;;;;;;;13.50;8.43;;;3.20;99.90;;;;;;8474358;27;20196;-68
2022/01/19 09:19:00;;;;;;;10.07;6.93;;;3.40;99.90;;;;;;8468846;27;20269;-68
2022/01/19 09:23:02;;;;;;;9.80;6.83;;;3.50;99.90;;;;;;8474583;27;20181;-69
2022/01/19 09:27:04;;;;;;;10.47;7.10;;;3.60;99.90;;;;;;8491707;27;20245;-68
2022/01/19 09:31:11;;;;;;;10.70;7.63;;;3.70;99.90;;;;;;8482045;27;20179;-68
2022/01/19 09:35:22;;;;;;;13.77;11.03;;;3.80;99.90;;;;;;8490066;27;20447;-68
2022/01/19 09:39:25;;;;;;;15.87;10.03;;;3.80;99.90;;;;;;8487316;27;20187;-68
2022/01/19 09:43:27;;;;;;;23.50;13.57;;;3.90;99.90;;;;;;8463912;27;20191;-68
2022/01/19 09:47:28;;;;;;;15.03;9.03;;;4.20;99.90;;;;;;8465188;27;20207;-68
2022/01/19 09:51:29;;;;;;;13.37;7.40;;;4.30;99.90;;;;;;8466054;27;20184;-68
2022/01/19 09:55:30;;;;;;;10.40;6.97;;;4.50;99.90;;;;;;8482358;27;20261;-68
2022/01/19 09:59:31;;;;;;;9.73;6.70;;;4.60;99.90;;;;;;8475241;27;20183;-68
2022/01/19 10:03:33;;;;;;;9.50;6.73;;;4.70;99.90;;;;;;8481355;27;20205;-69
2022/01/19 10:07:34;;;;;;;10.67;7.33;;;4.80;99.90;;;;;;8490272;27;20224;-68
2022/01/19 10:19:55;;;;;;;16.60;9.47;;;5.00;1.00;;;;;;8456652;28;20191;-68
2022/01/19 10:23:57;;;;;;;12.33;7.73;;;5.10;1.00;;;;;;8469692;27;20199;-68
2022/01/19 10:27:58;;;;;;;12.63;8.50;;;5.20;99.90;;;;;;8478470;27;20248;-68
2022/01/19 10:32:03;;;;;;;9.43;6.33;;;5.30;99.90;;;;;;8472167;27;20180;-68
2022/01/19 10:36:04;;;;;;;11.43;7.00;;;5.30;99.90;;;;;;8479547;27;20175;-68
2022/01/19 10:40:06;;;;;;;10.93;6.73;;;5.30;99.90;;;;;;8487042;27;20182;-69
2022/01/19 10:44:06;;;;;;;11.17;6.93;;;5.40;99.90;;;;;;8488772;27;20206;-69
2022/01/19 10:48:07;;;;;;;10.30;7.80;;;5.50;90.30;;;;;;8484048;27;20560;-68
2022/01/19 10:52:08;;;;;;;10.23;7.57;;;5.60;90.30;;;;;;8480896;27;20176;-68
2022/01/19 10:56:27;;;;;;;13.73;12.27;;;5.70;16.10;;;;;;8479245;27;20207;-67
2022/01/19 11:00:33;;;;;;;13.57;9.50;;;5.70;1.00;;;;;;8486312;27;20191;-68
2022/01/19 11:04:39;;;;;;;23.33;10.87;;;5.80;99.90;;;;;;8471627;27;20239;-68
2022/01/19 11:08:45;;;;;;;16.23;9.10;;;5.80;99.90;;;;;;8454128;28;20213;-67
2022/01/19 11:12:52;;;;;;;13.27;7.23;;;5.80;99.90;;;;;;8471739;27;20188;-68
2022/01/19 11:16:54;;;;;;;10.33;5.90;;;5.90;68.50;;;;;;8472731;27;20300;-68
2022/01/19 11:20:56;;;;;;;12.90;6.43;;;6.00;11.80;;;;;;8456797;28;20175;-68
2022/01/19 11:25:34;;;;;;;11.67;6.90;;;6.10;99.90;;;;;;8486046;27;20239;-68
2022/01/19 11:29:37;;;;;;;10.10;7.33;;;6.20;1.00;;;;;;8470760;27;20207;-68
2022/01/19 11:33:47;;;;;;;16.30;10.90;;;6.30;99.90;;;;;;8475350;27;20174;-68
2022/01/19 11:37:49;;;;;;;14.57;8.23;;;6.30;94.80;;;;;;8453412;27;20577;-68
2022/01/19 11:41:56;;;;;;;12.97;8.80;;;6.40;99.90;;;;;;8485340;27;20179;-66
2022/01/19 11:45:59;;;;;;;10.33;6.93;;;6.50;99.90;;;;;;8457352;27;20636;-65
2022/01/19 11:50:21;;;;;;;11.67;6.97;;;6.50;99.90;;;;;;8486316;27;20175;-67
2022/01/19 11:54:29;;;;;;;14.70;8.53;;;6.40;99.90;;;;;;8486672;27;20183;-67
2022/01/19 11:58:30;;;;;;;11.80;8.33;;;6.40;99.90;;;;;;8477746;27;20223;-68
2022/01/19 12:02:36;;;;;;;9.87;8.30;;;6.50;1.00;;;;;;8464785;27;20267;-69
2022/01/19 12:06:37;;;;;;;27.13;22.83;;;6.40;99.90;;;;;;8487590;27;20251;-65
2022/01/19 12:10:44;;;;;;;15.70;11.50;;;6.50;99.90;;;;;;8486718;27;20175;-65
2022/01/19 12:14:51;;;;;;;26.00;12.90;;;6.50;99.90;;;;;;8468078;27;20266;-64
2022/01/19 12:18:56;;;;;;;10.90;7.53;;;6.60;99.90;;;;;;8465579;27;20192;-65
2022/01/19 12:23:29;;;;;;;12.07;8.80;;;6.60;1.00;;;;;;8461194;28;20263;-65
2022/01/19 12:27:33;;;;;;;16.33;10.63;;;6.60;1.00;;;;;;8464060;27;20242;-66
2022/01/19 12:31:36;;;;;;;10.13;8.10;;;6.60;1.00;;;;;;8481999;28;20246;-69
2022/01/19 12:35:37;;;;;;;9.07;7.10;;;6.60;1.00;;;;;;8476708;28;20175;-66
2022/01/19 12:39:44;;;;;;;8.37;6.20;;;6.60;99.90;;;;;;8485607;27;20224;-66
2022/01/19 12:43:46;;;;;;;9.30;7.97;;;6.70;1.00;;;;;;8459750;27;20187;-65
2022/01/19 12:47:55;;;;;;;12.13;9.13;;;6.70;99.90;;;;;;8470505;27;20180;-65
2022/01/19 12:51:56;;;;;;;13.17;8.93;;;6.60;99.90;;;;;;8469195;28;20171;-66
2022/01/19 12:56:05;;;;;;;13.30;8.93;;;6.60;99.90;;;;;;8478310;27;20206;-66
2022/01/19 13:00:12;;;;;;;16.20;10.63;;;6.60;99.90;;;;;;8477963;28;20199;-65
2022/01/19 13:04:45;;;;;;;11.50;9.07;;;6.60;99.90;;;;;;8482414;27;20199;-66
2022/01/19 13:09:00;;;;;;;12.10;8.47;;;6.50;1.00;;;;;;8463149;28;20199;-67
2022/01/19 13:17:05;;;;;;;10.70;8.77;;;6.50;99.90;;;;;;8470638;27;20196;-66
2022/01/19 13:21:07;;;;;;;11.50;9.50;;;6.40;1.00;;;;;;8455504;28;20263;-66
2022/01/19 13:25:25;;;;;;;10.80;8.90;;;6.30;99.90;;;;;;8491062;27;20195;-68
2022/01/19 13:29:31;;;;;;;12.00;8.40;;;6.20;1.00;;;;;;8482903;27;20172;-66
2022/01/19 13:33:32;;;;;;;10.93;8.10;;;6.10;99.90;;;;;;8469597;27;20187;-66
2022/01/19 13:37:38;;;;;;;7.07;6.23;;;6.00;99.90;;;;;;8462945;27;20463;-66
2022/01/19 13:41:43;;;;;;;8.10;6.53;;;6.00;99.90;;;;;;8481888;27;20183;-66
2022/01/19 13:49:53;;;;;;;11.63;7.90;;;5.90;1.00;;;;;;8481343;27;20195;-66
2022/01/19 13:53:55;;;;;;;8.70;6.57;;;5.80;1.00;;;;;;8488323;27;20188;-66
2022/01/19 13:58:12;;;;;;;9.63;7.70;;;5.70;99.90;;;;;;8487675;27;20239;-66
2022/01/19 14:02:16;;;;;;;9.47;7.20;;;5.70;1.00;;;;;;8470997;27;20186;-66
2022/01/19 14:06:32;;;;;;;9.40;7.67;;;5.60;99.90;;;;;;8479928;27;20199;-66
2022/01/19 14:10:45;;;;;;;10.40;7.10;;;5.60;1.00;;;;;;8490468;27;20190;-66
2022/01/19 14:14:49;;;;;;;11.13;9.23;;;5.50;1.00;;;;;;8467897;27;20184;-66
2022/01/19 14:19:09;;;;;;;10.33;7.17;;;5.50;73.60;;;;;;8486672;27;20195;-66
2022/01/19 14:23:15;;;;;;;10.37;8.13;;;5.40;99.90;;;;;;8463846;27;20176;-66
2022/01/19 14:27:25;;;;;;;11.57;7.73;;;5.20;51.50;;;;;;8455764;27;20245;-66
2022/01/19 14:31:25;;;;;;;11.77;8.53;;;5.10;99.90;;;;;;8478375;27;20195;-66
2022/01/19 14:35:36;;;;;;;10.47;7.67;;;5.10;1.00;;;;;;8490551;27;20209;-66
2022/01/19 14:39:55;;;;;;;10.23;7.23;;;5.00;59.40;;;;;;8475272;27;20186;-66
2022/01/19 14:44:08;;;;;;;12.60;7.53;;;4.90;99.90;;;;;;8480697;27;20176;-66
2022/01/19 14:48:14;;;;;;;9.67;7.20;;;4.70;99.90;;;;;;8481941;27;20174;-68
2022/01/19 14:52:15;;;;;;;12.67;7.53;;;4.60;1.00;;;;;;8481368;27;20179;-66
2022/01/19 14:56:19;;;;;;;12.37;7.50;;;4.50;99.90;;;;;;8470326;27;20200;-69
2022/01/19 15:00:22;;;;;;;10.17;7.27;;;4.40;99.90;;;;;;8478026;27;20266;-66
2022/01/19 15:04:23;;;;;;;9.17;6.43;;;4.20;99.90;;;;;;8463052;27;20187;-69
2022/01/19 15:08:24;;;;;;;11.07;7.10;;;4.00;1.00;;;;;;8453976;28;20172;-67
2022/01/19 15:12:25;;;;;;;11.60;6.87;;;3.70;23.80;;;;;;8473966;27;20578;-67
2022/01/19 15:16:26;;;;;;;9.07;6.00;;;3.40;99.90;;;;;;8478448;27;20206;-69
2022/01/19 15:20:28;;;;;;;9.43;6.90;;;3.00;99.90;;;;;;8489528;27;20629;-68
2022/01/19 15:24:29;;;;;;;10.53;6.80;;;2.80;99.90;;;;;;8459228;27;20274;-68
2022/01/19 15:28:30;;;;;;;10.97;7.90;;;2.70;1.00;;;;;;8455668;27;20195;-69
2022/01/19 15:32:31;;;;;;;10.60;7.40;;;2.60;1.00;;;;;;8488664;27;20182;-69
2022/01/19 15:36:32;;;;;;;10.87;7.43;;;2.40;1.00;;;;;;8487679;27;20179;-69
2022/01/19 15:40:34;;;;;;;11.60;7.90;;;2.20;1.00;;;;;;8487851;27;20211;-69
2022/01/19 15:44:35;;;;;;;17.10;9.70;;;2.00;1.00;;;;;;8478720;27;20620;-68
2022/01/19 15:48:36;;;;;;;13.63;8.03;;;1.80;1.00;;;;;;8468166;27;20262;-68
2022/01/19 15:52:37;;;;;;;12.20;9.00;;;1.70;51.10;;;;;;8473389;27;20270;-67
2022/01/19 15:56:40;;;;;;;13.57;8.60;;;1.60;99.90;;;;;;8474705;27;20200;-67
2022/01/19 16:00:40;;;;;;;12.70;7.60;;;1.60;99.90;;;;;;8469903;27;20236;-67
2022/01/19 16:04:42;;;;;;;16.23;9.07;;;1.60;7.20;;;;;;8466490;27;20212;-67
2022/01/19 16:08:43;;;;;;;12.70;7.53;;;1.60;1.00;;;;;;8479808;27;20172;-66
2022/01/19 16:12:44;;;;;;;12.40;7.97;;;1.60;1.00;;;;;;8470738;27;20190;-66
2022/01/19 16:16:44;;;;;;;13.00;9.57;;;1.60;99.90;;;;;;8481493;27;20285;-67
2022/01/19 16:20:47;;;;;;;13.00;8.50;;;1.50;99.90;;;;;;8485649;27;20275;-67
2022/01/19 16:29:07;;;;;;;11.23;6.93;;;1.30;99.90;;;;;;8483180;28;20239;-66
2022/01/19 16:33:11;;;;;;;12.70;7.33;;;1.30;99.90;;;;;;8485926;28;20179;-67
2022/01/19 16:37:12;;;;;;;10.83;7.30;;;1.30;99.90;;;;;;8487513;28;20190;-66
2022/01/19 16:41:17;;;;;;;10.77;7.17;;;1.30;99.90;;;;;;8486534;28;20174;-67
2022/01/19 16:45:18;;;;;;;11.97;7.37;;;1.40;1.00;;;;;;8484631;27;20301;-67
2022/01/19 16:49:28;;;;;;;12.13;7.27;;;1.40;99.90;;;;;;8476996;27;20582;-67
2022/01/19 16:53:32;;;;;;;11.37;7.17;;;1.40;1.00;;;;;;8471332;27;20180;-67
2022/01/19 16:57:33;;;;;;;10.87;6.87;;;1.50;76.20;;;;;;8488716;27;20198;-68
2022/01/19 17:01:35;;;;;;;11.13;7.40;;;1.60;1.00;;;;;;8477202;27;20187;-68
2022/01/19 17:05:36;;;;;;;10.70;6.87;;;1.60;99.90;;;;;;8475035;27;20210;-66
2022/01/19 17:09:37;;;;;;;12.57;8.07;;;1.60;99.90;;;;;;8484863;27;20207;-66
2022/01/19 17:13:49;;;;;;;11.63;7.33;;;1.60;1.00;;;;;;8486765;27;20197;-67
2022/01/19 17:17:54;;;;;;;13.37;8.83;;;1.60;99.90;;;;;;8491140;27;20219;-66
2022/01/19 17:21:55;;;;;;;13.73;7.83;;;1.60;6.70;;;;;;8491405;27;20269;-67
2022/01/19 17:25:58;;;;;;;9.23;6.60;;;1.60;1.00;;;;;;8489876;27;20202;-66
2022/01/19 17:29:58;;;;;;;10.60;7.17;;;1.60;99.90;;;;;;8468820;27;20175;-68
2022/01/19 17:34:03;;;;;;;14.23;8.27;;;1.50;99.90;;;;;;8489715;27;20231;-69
2022/01/19 17:38:04;;;;;;;11.60;7.90;;;1.50;99.90;;;;;;8467043;27;20199;-67
2022/01/19 17:42:05;;;;;;;10.53;7.53;;;1.50;99.90;;;;;;8469119;27;20182;-68
2022/01/19 17:46:15;;;;;;;11.73;7.27;;;1.50;99.90;;;;;;8484691;27;20294;-66
2022/01/19 17:54:50;;;;;;;9.40;7.07;;;1.50;1.00;;;;;;8447324;27;20627;-67
2022/01/19 17:58:51;;;;;;;12.17;8.33;;;1.40;99.90;;;;;;8487590;27;20195;-66
2022/01/19 18:02:53;;;;;;;12.03;7.60;;;1.40;99.90;;;;;;8475108;27;20503;-66
2022/01/19 18:06:54;;;;;;;11.97;8.07;;;1.40;99.90;;;;;;8483594;27;20449;-66
2022/01/19 18:10:55;;;;;;;12.03;8.37;;;1.40;99.90;;;;;;8488314;27;20167;-67
2022/01/19 18:14:56;;;;;;;13.30;9.07;;;1.50;1.00;;;;;;8466264;27;20179;-66
2022/01/19 18:19:00;;;;;;;11.50;8.33;;;1.40;99.90;;;;;;8483433;27;20191;-66
2022/01/19 18:23:01;;;;;;;11.47;8.57;;;1.40;79.50;;;;;;8472840;27;20183;-65
2022/01/19 18:27:02;;;;;;;13.97;9.10;;;1.40;99.90;;;;;;8460074;27;20241;-65
2022/01/19 18:31:03;;;;;;;15.70;8.33;;;1.40;1.00;;;;;;8474121;27;20251;-65
2022/01/19 18:35:08;;;;;;;14.27;8.90;;;1.40;1.00;;;;;;8488863;27;20187;-66
2022/01/19 18:39:14;;;;;;;15.27;8.50;;;1.40;23.90;;;;;;8473410;27;20187;-66
2022/01/19 18:43:15;;;;;;;13.47;8.97;;;1.40;99.90;;;;;;8472670;27;20194;-65
2022/01/19 18:47:16;;;;;;;11.43;8.27;;;1.30;99.90;;;;;;8487035;27;20235;-66
2022/01/19 18:51:17;;;;;;;13.00;8.33;;;1.30;99.90;;;;;;8466919;27;20172;-66
2022/01/19 18:55:19;;;;;;;14.77;8.80;;;1.40;99.90;;;;;;8461071;27;20182;-66
2022/01/19 18:59:20;;;;;;;14.50;9.70;;;1.40;99.90;;;;;;8479773;27;20188;-67
2022/01/19 19:03:21;;;;;;;15.63;10.07;;;1.40;99.90;;;;;;8470484;27;20187;-66
2022/01/19 19:07:22;;;;;;;14.80;10.73;;;1.40;99.90;;;;;;8461800;27;20196;-70
2022/01/19 19:15:33;;;;;;;12.33;9.17;;;1.60;99.90;;;;;;8471671;27;20384;-65
2022/01/19 19:19:35;;;;;;;13.03;9.13;;;1.80;99.90;;;;;;8461694;27;20164;-67
2022/01/19 19:23:36;;;;;;;11.80;9.27;;;1.90;99.90;;;;;;8475084;27;20179;-66
2022/01/19 19:27:37;;;;;;;12.90;9.37;;;2.00;99.90;;;;;;8475326;27;20214;-64
2022/01/19 19:31:38;;;;;;;15.00;8.83;;;2.10;46.70;;;;;;8470714;27;20183;-65
2022/01/19 19:35:39;;;;;;;13.80;9.70;;;2.30;1.00;;;;;;8473594;27;20220;-66
2022/01/19 19:39:40;;;;;;;13.97;10.00;;;2.30;1.00;;;;;;8477241;27;20175;-65
2022/01/19 19:43:41;;;;;;;13.60;8.77;;;2.40;60.90;;;;;;8476647;27;20185;-67
2022/01/19 19:47:42;;;;;;;13.10;8.87;;;2.40;99.90;;;;;;8474179;27;20208;-65
2022/01/19 19:51:44;;;;;;;13.53;9.73;;;2.40;99.90;;;;;;8486698;27;20286;-68
2022/01/19 19:55:46;;;;;;;12.13;9.13;;;2.50;57.70;;;;;;8476334;27;20195;-66
2022/01/19 19:59:47;;;;;;;15.50;9.57;;;2.50;77.60;;;;;;8479729;27;20183;-65
2022/01/19 20:03:48;;;;;;;14.23;10.07;;;2.50;99.90;;;;;;8474051;27;20221;-66
2022/01/19 20:07:49;;;;;;;16.90;8.70;;;2.50;99.90;;;;;;8486585;27;20402;-66
2022/01/19 20:11:50;;;;;;;12.73;9.03;;;2.50;96.60;;;;;;8469501;27;20194;-67
2022/01/19 20:15:52;;;;;;;12.87;9.00;;;2.50;49.40;;;;;;8481808;27;20202;-65
2022/01/19 20:19:53;;;;;;;11.27;7.83;;;2.50;1.00;;;;;;8437700;28;20184;-65
2022/01/19 20:23:55;;;;;;;12.90;8.87;;;2.50;99.90;;;;;;8474116;27;20183;-66
2022/01/19 20:27:56;;;;;;;12.10;8.33;;;2.60;89.80;;;;;;8485531;27;20179;-66
2022/01/19 20:31:57;;;;;;;16.10;8.73;;;2.60;76.30;;;;;;8476643;27;20177;-65
2022/01/19 20:35:58;;;;;;;13.40;9.43;;;2.60;99.90;;;;;;8474846;28;20174;-68
2022/01/19 20:39:59;;;;;;;12.90;7.97;;;2.60;99.90;;;;;;8474041;27;20220;-66
2022/01/19 20:44:00;;;;;;;11.80;8.80;;;2.60;99.90;;;;;;8470622;27;20190;-67
2022/01/19 20:48:02;;;;;;;13.47;9.43;;;2.60;89.60;;;;;;8479131;27;20247;-65
2022/01/19 20:52:03;;;;;;;12.50;8.30;;;2.70;41.40;;;;;;8477706;28;20186;-66
2022/01/19 20:56:04;;;;;;;14.77;9.03;;;2.70;90.80;;;;;;8471224;28;20271;-67
2022/01/19 21:00:12;;;;;;;17.87;9.53;;;2.70;99.90;;;;;;8464530;28;20188;-66
2022/01/19 21:04:13;;;;;;;15.87;9.17;;;2.70;99.90;;;;;;8477777;27;20258;-66
2022/01/19 21:08:15;;;;;;;13.13;8.80;;;2.70;99.90;;;;;;8485081;28;20183;-66
2022/01/19 21:12:17;;;;;;;15.70;8.80;;;2.70;99.90;;;;;;8477110;27;20180;-68
2022/01/19 21:16:18;;;;;;;11.63;8.57;;;2.70;99.90;;;;;;8463045;28;20191;-66
2022/01/19 21:20:21;;;;;;;15.53;9.87;;;2.70;99.90;;;;;;8455832;28;20187;-66
2022/01/19 21:24:23;;;;;;;12.57;9.30;;;2.70;99.90;;;;;;8458587;27;20207;-66
2022/01/19 21:28:25;;;;;;;12.80;8.80;;;2.70;99.90;;;;;;8459893;28;20259;-67
2022/01/19 21:32:28;;;;;;;15.83;9.40;;;2.80;99.90;;;;;;8485079;28;20203;-67
2022/01/19 21:36:29;;;;;;;12.90;9.20;;;2.70;99.90;;;;;;8484002;28;20184;-65
2022/01/19 21:40:31;;;;;;;13.77;8.37;;;2.70;1.00;;;;;;8481141;27;20213;-66
2022/01/19 21:44:31;;;;;;;17.00;9.63;;;2.70;1.00;;;;;;8468829;27;20201;-64
2022/01/19 21:48:33;;;;;;;13.47;8.43;;;2.70;1.00;;;;;;8481673;27;20200;-66
2022/01/19 21:52:35;;;;;;;16.43;10.23;;;2.70;1.00;;;;;;8480028;27;20399;-68
2022/01/19 21:56:36;;;;;;;15.50;10.80;;;2.70;1.00;;;;;;8478705;27;20208;-67
2022/01/19 22:00:37;;;;;;;18.43;9.97;;;2.70;1.00;;;;;;8480212;27;20199;-66
2022/01/19 22:04:38;;;;;;;17.40;10.90;;;2.70;99.90;;;;;;8491140;27;20210;-65
2022/01/19 22:08:39;;;;;;;14.63;11.23;;;2.70;10.60;;;;;;8487247;27;20179;-68
2022/01/19 22:12:40;;;;;;;17.83;12.67;;;2.70;99.90;;;;;;8489637;27;20194;-67
2022/01/19 22:16:41;;;;;;;26.07;16.40;;;2.70;99.90;;;;;;8489285;27;20199;-68
2022/01/19 22:20:42;;;;;;;19.57;11.30;;;2.70;99.90;;;;;;8491001;27;20183;-66
2022/01/19 22:24:44;;;;;;;22.87;12.77;;;2.70;99.90;;;;;;8481888;27;20205;-67
2022/01/19 22:28:44;;;;;;;19.27;10.43;;;2.70;99.90;;;;;;8480807;27;20190;-66
2022/01/19 22:32:46;;;;;;;15.47;9.93;;;2.70;99.90;;;;;;8472201;27;20194;-67
2022/01/19 22:36:47;;;;;;;14.53;9.93;;;2.70;99.90;;;;;;8487274;27;20211;-67
2022/01/19 22:40:48;;;;;;;14.90;10.37;;;2.70;1.00;;;;;;8478681;27;20212;-66
2022/01/19 22:44:49;;;;;;;13.83;9.87;;;2.60;1.00;;;;;;8469793;27;20199;-67
2022/01/19 22:48:50;;;;;;;14.30;9.47;;;2.60;99.90;;;;;;8474306;27;20186;-67
2022/01/19 22:52:52;;;;;;;17.37;10.13;;;2.50;99.90;;;;;;8460423;27;20311;-67
2022/01/19 22:56:53;;;;;;;15.60;10.03;;;2.50;99.90;;;;;;8487155;27;20206;-67
2022/01/19 23:00:54;;;;;;;15.17;10.47;;;2.50;99.90;;;;;;8470809;27;20183;-64
2022/01/19 23:04:55;;;;;;;16.57;10.77;;;2.50;99.90;;;;;;8459832;27;20207;-68